Terminal Aerodrome Forecast
Issued by NWS Twin Cities, MN

Home | Current Version | Previous Version | Text Only | Print | Product List | Glossary Off
Versions: 1 2 3 4 5 6 7 8 9 10 11 12 13 14 15 16 17 18 19 20

906
FTUS43 KMPX 221120
TAFEAU
TAF
KEAU 221120Z 2212/2312 36004KT 6SM BR OVC002
     FM221330 VRB04KT P6SM SCT250
     FM222000 22004KT P6SM SCT250
     FM230900 00000KT 1 1/2SM BR BKN007=

USA.gov is the U.S. government's official web portal to all federal, state and local government web resources and services.